Rocky Branch, Texas
Current Conditions -  °F | °C
As of 4:15 PM on Thursday 23 Oct 2014 (Local Time) from KOSA Reporting Station
Clear Clear  
Wind Chill: 23°   Ceiling: Unl
Heat Index: 23°   Visibility: 10mi
Dew Point: 11°   Wind: 3mph
Humidity: 45%   Direction: 90°E
Pressure: 30.12"   Gusts: NA
Location:  33.2006°N, 94.6977°W
Report Text: KOSA 232115Z AUTO 09003KT 10SM CLR 23/11 A3012 RMK AO1 T02320107
Loading
Personal Weather Stations






























Interactive Weather Map
Tropical Storm Tracking
New forecast layout! Learn more

10-Day Weather Forecast

Advertisements
Track Severe Weather on mobile